Time;durP1;ratioP1;P1;durP2;ratioP2;P2;SDS_P1;SDS_P2;PMS_P1;PMS_P2;Temp;Humidity;BMP_temperature;BMP_pressure;BME280_temperature;BME280_humidity;BME280_pressure;Samples;Min_cycle;Max_cycle;Signal;HPM_P1;HPM_P2
2021/07/01 00:02:12;;;;;;;;;11.00;8.67;;;;;;;;5047646;28;48236;-80
2021/07/01 00:04:37;;;;;;;;;17.50;11.00;;;;;;;;5035448;28;45497;-79
2021/07/01 00:07:03;;;;;;;;;13.50;12.75;;;;;;;;5037356;28;45427;-79
2021/07/01 00:09:28;;;;;;;;;15.50;11.75;;;;;;;;5047380;28;45459;-80
2021/07/01 00:11:55;;;;;;;;;13.75;13.75;;;;;;;;5048854;28;46098;-80
2021/07/01 00:14:21;;;;;;;;;18.25;14.25;;;;;;;;5051939;28;45486;-80
2021/07/01 00:16:47;;;;;;;;;13.75;13.00;;;;;;;;5051962;28;45508;-79
2021/07/01 00:19:12;;;;;;;;;18.75;13.00;;;;;;;;5054456;28;45770;-80
2021/07/01 00:21:38;;;;;;;;;18.50;13.25;;;;;;;;5060712;28;45526;-78
2021/07/01 00:24:03;;;;;;;;;19.25;13.50;;;;;;;;5054691;27;45607;-79
2021/07/01 00:26:28;;;;;;;;;14.00;11.75;;;;;;;;5052081;28;45482;-78
2021/07/01 00:28:54;;;;;;;;;16.25;11.50;;;;;;;;5065282;28;45541;-79
2021/07/01 00:31:20;;;;;;;;;17.50;13.25;;;;;;;;5057416;28;47582;-79
2021/07/01 00:33:45;;;;;;;;;13.50;12.75;;;;;;;;5056096;28;45510;-78
2021/07/01 00:36:11;;;;;;;;;15.25;12.50;;;;;;;;5052417;28;45350;-79
2021/07/01 00:38:36;;;;;;;;;11.67;11.67;;;;;;;;5059193;28;45573;-78
2021/07/01 00:41:01;;;;;;;;;12.33;12.00;;;;;;;;5058669;28;48506;-79
2021/07/01 00:43:26;;;;;;;;;18.50;12.00;;;;;;;;5061051;28;45490;-79
2021/07/01 00:45:52;;;;;;;;;13.33;11.33;;;;;;;;5063392;28;45434;-79
2021/07/01 00:48:17;;;;;;;;;19.67;13.33;;;;;;;;5050969;28;45344;-79
2021/07/01 00:50:42;;;;;;;;;13.75;11.00;;;;;;;;5049717;28;45479;-80
2021/07/01 00:53:07;;;;;;;;;15.33;10.67;;;;;;;;5050965;28;45448;-78
2021/07/01 00:55:33;;;;;;;;;13.00;11.67;;;;;;;;5051901;28;45634;-79
2021/07/01 00:57:58;;;;;;;;;11.75;11.50;;;;;;;;5052598;28;45294;-78
2021/07/01 01:03:07;;;;;;;;;12.50;12.00;;;;;;;;5047841;28;45785;-78
2021/07/01 01:05:33;;;;;;;;;11.25;11.00;;;;;;;;5049066;28;45362;-79
2021/07/01 01:07:59;;;;;;;;;18.00;11.25;;;;;;;;5051298;28;45558;-79
2021/07/01 01:10:24;;;;;;;;;13.50;12.25;;;;;;;;5050777;28;47298;-79
2021/07/01 01:12:49;;;;;;;;;15.67;12.00;;;;;;;;5061545;28;45390;-78
2021/07/01 01:15:14;;;;;;;;;12.67;12.00;;;;;;;;5056798;28;45368;-78
2021/07/01 01:17:41;;;;;;;;;14.00;12.67;;;;;;;;5057498;28;45398;-78
2021/07/01 01:20:06;;;;;;;;;11.25;9.75;;;;;;;;5061070;28;46261;-79
2021/07/01 01:22:32;;;;;;;;;12.25;12.25;;;;;;;;5057179;28;45349;-79
2021/07/01 01:24:57;;;;;;;;;12.00;12.00;;;;;;;;5062031;28;45338;-78
2021/07/01 01:27:23;;;;;;;;;13.33;12.00;;;;;;;;5049321;27;45579;-79
2021/07/01 01:29:48;;;;;;;;;12.25;10.00;;;;;;;;5051048;28;45567;-78
2021/07/01 01:32:13;;;;;;;;;15.50;11.50;;;;;;;;5050597;27;45795;-78
2021/07/01 01:34:38;;;;;;;;;13.33;9.33;;;;;;;;5053187;28;45486;-79
2021/07/01 01:37:06;;;;;;;;;14.00;12.33;;;;;;;;5066712;28;45721;-78
2021/07/01 01:39:32;;;;;;;;;10.25;10.00;;;;;;;;5054468;28;45507;-79
2021/07/01 01:41:57;;;;;;;;;13.33;11.00;;;;;;;;5055349;28;45348;-78
2021/07/01 01:44:22;;;;;;;;;16.33;11.00;;;;;;;;5064122;28;45469;-78
2021/07/01 01:46:47;;;;;;;;;11.67;10.00;;;;;;;;5066636;28;45394;-79
2021/07/01 01:49:12;;;;;;;;;11.67;10.00;;;;;;;;5054859;28;45416;-79
2021/07/01 01:51:38;;;;;;;;;10.67;10.67;;;;;;;;5054810;28;45468;-79
2021/07/01 01:54:05;;;;;;;;;14.00;11.00;;;;;;;;5057094;28;45283;-79
2021/07/01 01:56:36;;;;;;;;;17.50;12.50;;;;;;;;5059653;28;45462;-79
2021/07/01 01:59:05;;;;;;;;;12.50;10.75;;;;;;;;5054138;28;46188;-79
2021/07/01 02:01:31;;;;;;;;;13.50;10.75;;;;;;;;5082288;27;46165;-78
2021/07/01 02:03:57;;;;;;;;;15.50;11.00;;;;;;;;5066961;28;45421;-78
2021/07/01 02:06:22;;;;;;;;;12.25;9.50;;;;;;;;5060351;27;45357;-78
2021/07/01 02:08:47;;;;;;;;;13.67;10.33;;;;;;;;5056094;28;46302;-79
2021/07/01 02:11:12;;;;;;;;;13.00;11.33;;;;;;;;5053472;28;45373;-79
2021/07/01 02:13:37;;;;;;;;;15.67;12.33;;;;;;;;5065506;28;46289;-79
2021/07/01 02:16:03;;;;;;;;;13.33;10.67;;;;;;;;5058104;28;45360;-78
2021/07/01 02:18:28;;;;;;;;;11.25;9.00;;;;;;;;5057949;28;48380;-79
2021/07/01 02:20:53;;;;;;;;;16.33;12.33;;;;;;;;5055364;28;45970;-79
2021/07/01 02:23:18;;;;;;;;;16.33;12.33;;;;;;;;5063409;28;45372;-79
2021/07/01 02:25:43;;;;;;;;;10.67;9.33;;;;;;;;5062569;28;45308;-79
2021/07/01 02:28:09;;;;;;;;;13.67;10.00;;;;;;;;5067127;28;45696;-79
2021/07/01 02:30:34;;;;;;;;;11.67;9.67;;;;;;;;5056218;28;45432;-79
2021/07/01 02:32:59;;;;;;;;;10.67;10.67;;;;;;;;5054404;28;45407;-79
2021/07/01 02:35:24;;;;;;;;;11.33;10.33;;;;;;;;5054474;28;45356;-79
2021/07/01 02:37:50;;;;;;;;;11.67;10.00;;;;;;;;5064279;28;46259;-79
2021/07/01 02:40:15;;;;;;;;;17.00;11.50;;;;;;;;5063481;28;45387;-79
2021/07/01 02:42:41;;;;;;;;;7.50;7.50;;;;;;;;5062016;28;45449;-79
2021/07/01 02:45:10;;;;;;;;;10.50;9.75;;;;;;;;5056031;28;45508;-78
2021/07/01 02:47:36;;;;;;;;;13.75;10.50;;;;;;;;5057263;28;46210;-78
2021/07/01 02:50:01;;;;;;;;;14.50;12.25;;;;;;;;5064858;28;45525;-79
2021/07/01 02:52:26;;;;;;;;;10.75;10.25;;;;;;;;5065768;28;45540;-78
2021/07/01 02:54:52;;;;;;;;;11.33;9.33;;;;;;;;5065235;28;45467;-78
2021/07/01 02:57:17;;;;;;;;;12.33;11.00;;;;;;;;5053959;28;48147;-79
2021/07/01 02:59:42;;;;;;;;;10.75;10.25;;;;;;;;5053765;28;45538;-78
2021/07/01 03:02:07;;;;;;;;;16.33;10.67;;;;;;;;5054143;28;45494;-78
2021/07/01 03:04:33;;;;;;;;;10.50;10.25;;;;;;;;5064402;28;45538;-79
2021/07/01 03:06:58;;;;;;;;;11.00;10.67;;;;;;;;5064943;28;46417;-78
2021/07/01 03:09:23;;;;;;;;;11.67;11.33;;;;;;;;5052683;28;45856;-78
2021/07/01 03:11:48;;;;;;;;;15.00;11.00;;;;;;;;5053628;28;45488;-79
2021/07/01 03:14:14;;;;;;;;;17.00;12.00;;;;;;;;5061377;28;45344;-78
2021/07/01 03:16:39;;;;;;;;;13.00;9.75;;;;;;;;5054735;28;45435;-78
2021/07/01 03:19:05;;;;;;;;;16.00;12.25;;;;;;;;5065292;28;45460;-79
2021/07/01 03:21:30;;;;;;;;;12.25;11.50;;;;;;;;5074320;27;45514;-79
2021/07/01 03:23:55;;;;;;;;;14.25;10.50;;;;;;;;5058525;27;45414;-79
2021/07/01 03:26:20;;;;;;;;;11.67;11.00;;;;;;;;5052627;28;45486;-79
2021/07/01 03:28:46;;;;;;;;;16.33;10.33;;;;;;;;5060014;28;45743;-79
2021/07/01 03:31:11;;;;;;;;;15.50;12.75;;;;;;;;5063131;28;45491;-79
2021/07/01 03:33:36;;;;;;;;;12.00;10.75;;;;;;;;5059956;28;45471;-78
2021/07/01 03:36:03;;;;;;;;;10.00;9.25;;;;;;;;5058477;27;45426;-78
2021/07/01 03:38:28;;;;;;;;;11.00;10.75;;;;;;;;5060810;27;45787;-78
2021/07/01 03:40:54;;;;;;;;;17.00;12.00;;;;;;;;5061554;28;45420;-78
2021/07/01 03:43:19;;;;;;;;;15.00;10.00;;;;;;;;5063527;28;45389;-78
2021/07/01 03:45:45;;;;;;;;;12.75;11.00;;;;;;;;5062389;28;47323;-79
2021/07/01 03:48:10;;;;;;;;;15.00;12.67;;;;;;;;5055367;28;45460;-78
2021/07/01 03:50:36;;;;;;;;;12.75;9.50;;;;;;;;5060162;28;45378;-79
2021/07/01 03:53:01;;;;;;;;;20.00;13.33;;;;;;;;5063829;28;45365;-78
2021/07/01 03:55:26;;;;;;;;;13.00;11.67;;;;;;;;5058288;28;45427;-78
2021/07/01 03:57:51;;;;;;;;;14.67;10.33;;;;;;;;5054470;28;45531;-78
2021/07/01 04:00:17;;;;;;;;;11.67;11.33;;;;;;;;5054665;28;45468;-79
2021/07/01 04:02:42;;;;;;;;;14.75;12.75;;;;;;;;5049945;28;45435;-78
2021/07/01 04:05:08;;;;;;;;;18.00;11.33;;;;;;;;5060642;28;47787;-77
2021/07/01 04:07:33;;;;;;;;;19.50;14.25;;;;;;;;5059962;28;45446;-79
2021/07/01 04:10:04;;;;;;;;;14.33;12.33;;;;;;;;5058552;28;45358;-78
2021/07/01 04:12:29;;;;;;;;;15.25;12.75;;;;;;;;5052520;28;45525;-77
2021/07/01 04:14:55;;;;;;;;;13.33;13.33;;;;;;;;5050574;28;45979;-77
2021/07/01 04:17:20;;;;;;;;;15.33;13.00;;;;;;;;5000321;27;45622;-78
2021/07/01 04:19:45;;;;;;;;;17.00;16.00;;;;;;;;5056879;28;45696;-77
2021/07/01 04:22:10;;;;;;;;;20.33;15.33;;;;;;;;5051339;28;45759;-78
2021/07/01 04:24:35;;;;;;;;;17.33;12.67;;;;;;;;5051079;28;46245;-78
2021/07/01 04:27:01;;;;;;;;;12.00;10.33;;;;;;;;5050010;28;45506;-78
2021/07/01 04:29:26;;;;;;;;;15.50;13.50;;;;;;;;5048588;28;45847;-77
2021/07/01 04:31:51;;;;;;;;;20.00;15.33;;;;;;;;5047476;28;45497;-77
2021/07/01 04:34:17;;;;;;;;;18.75;15.75;;;;;;;;5051281;28;46045;-78
2021/07/01 04:36:42;;;;;;;;;15.50;14.00;;;;;;;;5050913;28;45608;-78
2021/07/01 04:39:07;;;;;;;;;20.00;16.25;;;;;;;;5050814;28;45629;-78
2021/07/01 04:41:33;;;;;;;;;16.50;15.00;;;;;;;;5049701;28;45454;-77
2021/07/01 04:43:58;;;;;;;;;15.00;13.67;;;;;;;;5049513;28;45989;-78
2021/07/01 04:46:23;;;;;;;;;20.00;14.33;;;;;;;;5050756;28;45496;-77
2021/07/01 04:48:50;;;;;;;;;15.50;14.25;;;;;;;;5051694;28;45422;-78
2021/07/01 04:51:16;;;;;;;;;16.00;11.25;;;;;;;;5049502;28;45504;-78
2021/07/01 04:53:41;;;;;;;;;15.67;11.00;;;;;;;;5050533;28;48385;-78
2021/07/01 04:56:07;;;;;;;;;18.00;16.00;;;;;;;;5051612;28;45484;-79
2021/07/01 04:58:32;;;;;;;;;19.75;14.75;;;;;;;;5047381;28;45640;-77
2021/07/01 05:00:58;;;;;;;;;18.75;16.25;;;;;;;;5051958;28;45445;-77
2021/07/01 05:03:23;;;;;;;;;19.00;17.00;;;;;;;;5047961;28;47217;-77
2021/07/01 05:05:48;;;;;;;;;21.67;17.00;;;;;;;;5049670;28;48272;-77
2021/07/01 05:08:13;;;;;;;;;21.75;16.50;;;;;;;;5048722;28;45470;-78
2021/07/01 05:10:39;;;;;;;;;18.00;16.00;;;;;;;;5047542;28;45470;-77
2021/07/01 05:13:04;;;;;;;;;19.00;16.33;;;;;;;;5049131;28;48283;-77
2021/07/01 05:15:29;;;;;;;;;18.67;18.00;;;;;;;;5049449;28;45586;-77
2021/07/01 05:17:54;;;;;;;;;21.33;18.33;;;;;;;;5049613;28;45516;-78
2021/07/01 05:20:19;;;;;;;;;21.33;19.33;;;;;;;;5049961;28;45555;-77
2021/07/01 05:22:45;;;;;;;;;19.67;17.00;;;;;;;;5050926;28;46108;-77
2021/07/01 05:25:13;;;;;;;;;17.50;14.50;;;;;;;;5062887;28;45337;-78
2021/07/01 05:27:39;;;;;;;;;18.50;15.50;;;;;;;;5058151;28;45404;-77
2021/07/01 05:30:04;;;;;;;;;18.67;15.33;;;;;;;;5053290;28;45543;-77
2021/07/01 05:32:29;;;;;;;;;21.50;19.50;;;;;;;;5050878;27;45390;-77
2021/07/01 05:34:54;;;;;;;;;25.33;17.00;;;;;;;;5056801;28;45410;-77
2021/07/01 05:37:20;;;;;;;;;19.00;16.67;;;;;;;;5051619;28;45667;-78
2021/07/01 05:39:46;;;;;;;;;22.00;18.00;;;;;;;;5053106;28;45569;-77
2021/07/01 05:42:11;;;;;;;;;25.00;18.33;;;;;;;;5049478;28;46523;-77
2021/07/01 05:44:36;;;;;;;;;20.67;18.00;;;;;;;;5049257;28;45893;-77
2021/07/01 05:47:01;;;;;;;;;20.50;18.00;;;;;;;;5050202;28;45607;-77
2021/07/01 05:49:27;;;;;;;;;19.25;17.50;;;;;;;;5049080;28;45732;-78
2021/07/01 05:51:56;;;;;;;;;20.67;15.67;;;;;;;;5053011;28;45557;-77
2021/07/01 05:54:36;;;;;;;;;20.25;17.50;;;;;;;;5044966;28;45875;-78
2021/07/01 05:57:02;;;;;;;;;22.25;16.75;;;;;;;;5045978;28;45470;-78
2021/07/01 05:59:27;;;;;;;;;19.00;15.75;;;;;;;;5043454;28;45606;-78
2021/07/01 06:01:52;;;;;;;;;17.25;12.50;;;;;;;;5033881;28;45531;-78
2021/07/01 06:04:18;;;;;;;;;20.75;18.75;;;;;;;;5050804;28;46086;-78
2021/07/01 06:06:50;;;;;;;;;20.25;18.25;;;;;;;;5054651;28;45553;-77
2021/07/01 06:09:16;;;;;;;;;27.00;19.50;;;;;;;;5080044;27;45558;-78
2021/07/01 06:11:42;;;;;;;;;25.00;19.50;;;;;;;;5049431;28;46019;-76
2021/07/01 06:14:07;;;;;;;;;23.50;20.00;;;;;;;;5049388;28;45443;-78
2021/07/01 06:16:33;;;;;;;;;21.00;18.33;;;;;;;;5052654;28;45431;-77
2021/07/01 06:19:01;;;;;;;;;21.25;20.00;;;;;;;;5063118;28;45447;-77
2021/07/01 06:21:27;;;;;;;;;21.00;16.75;;;;;;;;5058454;28;46037;-77
2021/07/01 06:23:52;;;;;;;;;22.25;15.00;;;;;;;;5057526;28;45506;-77
2021/07/01 06:26:24;;;;;;;;;19.33;19.00;;;;;;;;5062073;28;45500;-77
2021/07/01 06:28:49;;;;;;;;;17.25;15.75;;;;;;;;5064806;28;45467;-77
2021/07/01 06:31:14;;;;;;;;;23.67;13.67;;;;;;;;5064948;28;47231;-77
2021/07/01 06:33:42;;;;;;;;;18.67;18.67;;;;;;;;5062526;28;45399;-77
2021/07/01 06:36:08;;;;;;;;;18.25;16.25;;;;;;;;5057215;28;45482;-76
2021/07/01 06:38:35;;;;;;;;;21.00;18.25;;;;;;;;5061079;28;45418;-77
2021/07/01 06:41:02;;;;;;;;;22.75;17.00;;;;;;;;5061529;28;47545;-77
2021/07/01 06:43:27;;;;;;;;;22.25;16.50;;;;;;;;5061846;28;45404;-77
2021/07/01 06:45:56;;;;;;;;;22.50;18.25;;;;;;;;5064637;28;45893;-77
2021/07/01 06:48:23;;;;;;;;;19.00;14.75;;;;;;;;5059005;28;45500;-77
2021/07/01 06:50:50;;;;;;;;;22.25;17.50;;;;;;;;5058972;27;45997;-77
2021/07/01 06:53:17;;;;;;;;;21.00;15.75;;;;;;;;5054430;28;45320;-77
2021/07/01 06:55:43;;;;;;;;;21.00;18.50;;;;;;;;5052032;28;45652;-76
2021/07/01 06:58:08;;;;;;;;;25.50;21.50;;;;;;;;5055856;28;45311;-76
2021/07/01 07:00:34;;;;;;;;;22.25;18.50;;;;;;;;5059140;28;46299;-77
2021/07/01 07:02:59;;;;;;;;;20.25;19.00;;;;;;;;5058119;28;45390;-77
2021/07/01 07:05:24;;;;;;;;;26.25;23.25;;;;;;;;5053025;28;45412;-77
2021/07/01 07:07:50;;;;;;;;;30.75;25.00;;;;;;;;5063518;28;45418;-77
2021/07/01 07:10:19;;;;;;;;;28.00;23.25;;;;;;;;5062917;28;45833;-77
2021/07/01 07:12:48;;;;;;;;;29.00;23.50;;;;;;;;5052883;28;46116;-77
2021/07/01 07:15:14;;;;;;;;;27.00;24.50;;;;;;;;5050165;28;45573;-77
2021/07/01 07:17:41;;;;;;;;;22.25;19.75;;;;;;;;5052486;28;45496;-77
2021/07/01 07:20:07;;;;;;;;;28.75;25.00;;;;;;;;5064114;28;46206;-77
2021/07/01 07:22:42;;;;;;;;;26.25;20.75;;;;;;;;5084148;27;45989;-77
2021/07/01 07:25:09;;;;;;;;;29.00;23.75;;;;;;;;5071587;27;45571;-77
2021/07/01 07:27:36;;;;;;;;;22.75;22.75;;;;;;;;5049086;28;45629;-77
2021/07/01 07:30:01;;;;;;;;;26.50;22.50;;;;;;;;5050113;28;47385;-77
2021/07/01 07:32:28;;;;;;;;;25.00;18.50;;;;;;;;5053468;28;45415;-76
2021/07/01 07:34:54;;;;;;;;;26.50;20.75;;;;;;;;5052517;28;45362;-77
2021/07/01 07:37:19;;;;;;;;;21.50;17.00;;;;;;;;5063178;28;45398;-77
2021/07/01 07:39:45;;;;;;;;;24.25;19.00;;;;;;;;5063252;28;45299;-76
2021/07/01 07:42:11;;;;;;;;;16.50;13.75;;;;;;;;5056156;28;45954;-77
2021/07/01 07:44:39;;;;;;;;;19.25;16.75;;;;;;;;5059767;28;45332;-77
2021/07/01 07:47:04;;;;;;;;;13.75;13.25;;;;;;;;5062403;28;45592;-77
2021/07/01 07:49:30;;;;;;;;;19.50;18.50;;;;;;;;5061915;28;47187;-77
2021/07/01 07:51:55;;;;;;;;;15.33;10.67;;;;;;;;5056051;28;45283;-78
2021/07/01 07:54:25;;;;;;;;;21.75;14.50;;;;;;;;5054441;28;45356;-77
2021/07/01 07:56:52;;;;;;;;;17.00;14.00;;;;;;;;5054554;27;45817;-77
2021/07/01 07:59:20;;;;;;;;;14.25;14.25;;;;;;;;5041402;28;47290;-78
2021/07/01 08:01:48;;;;;;;;;14.25;12.50;;;;;;;;5052613;28;45982;-77
2021/07/01 08:04:15;;;;;;;;;12.00;12.00;;;;;;;;5052826;28;45314;-77
2021/07/01 08:06:43;;;;;;;;;20.75;15.75;;;;;;;;5051515;28;45597;-77
2021/07/01 08:09:12;;;;;;;;;15.75;14.75;;;;;;;;5054868;28;45639;-78
2021/07/01 08:11:40;;;;;;;;;13.25;13.25;;;;;;;;5059105;27;45739;-77
2021/07/01 08:14:05;;;;;;;;;14.00;13.25;;;;;;;;5061753;28;45550;-78
2021/07/01 08:16:31;;;;;;;;;15.00;12.00;;;;;;;;5062400;28;45536;-77
2021/07/01 08:18:57;;;;;;;;;18.00;16.00;;;;;;;;5063713;28;45975;-78
2021/07/01 08:21:22;;;;;;;;;15.00;13.75;;;;;;;;5057462;27;45923;-77
2021/07/01 08:23:48;;;;;;;;;14.75;12.50;;;;;;;;5057416;27;45510;-78
2021/07/01 08:26:13;;;;;;;;;14.25;12.50;;;;;;;;5053928;28;45858;-77
2021/07/01 08:28:39;;;;;;;;;17.50;14.75;;;;;;;;5055484;28;46373;-78
2021/07/01 08:31:11;;;;;;;;;15.50;13.50;;;;;;;;5064590;28;45410;-78
2021/07/01 08:33:38;;;;;;;;;20.25;16.75;;;;;;;;5060235;28;45386;-77
2021/07/01 08:36:05;;;;;;;;;16.50;14.75;;;;;;;;5055621;28;45488;-77
2021/07/01 08:38:37;;;;;;;;;14.75;14.50;;;;;;;;5050435;28;48044;-78
2021/07/01 08:41:10;;;;;;;;;16.75;15.00;;;;;;;;5061631;28;45657;-78
2021/07/01 08:43:41;;;;;;;;;15.75;13.75;;;;;;;;5060043;28;45938;-78
2021/07/01 08:46:14;;;;;;;;;17.25;15.75;;;;;;;;5054491;28;45494;-77
2021/07/01 08:49:00;;;;;;;;;18.75;14.25;;;;;;;;5061170;28;47647;-79
2021/07/01 08:51:38;;;;;;;;;15.25;14.25;;;;;;;;5055031;28;45406;-79
2021/07/01 08:54:12;;;;;;;;;18.00;15.25;;;;;;;;5052770;28;45307;-77
2021/07/01 08:56:38;;;;;;;;;16.00;15.00;;;;;;;;5059489;27;45414;-76
2021/07/01 08:59:07;;;;;;;;;17.75;12.25;;;;;;;;5050442;28;45303;-77
2021/07/01 09:01:35;;;;;;;;;13.50;12.00;;;;;;;;5048782;28;45466;-77
2021/07/01 09:04:02;;;;;;;;;16.00;12.00;;;;;;;;5040518;28;46140;-77
2021/07/01 09:06:33;;;;;;;;;12.50;12.50;;;;;;;;5049537;28;45617;-76
2021/07/01 09:09:02;;;;;;;;;15.25;13.50;;;;;;;;5049453;28;47282;-78
2021/07/01 09:11:27;;;;;;;;;14.00;12.00;;;;;;;;5047577;28;45879;-76
2021/07/01 09:13:57;;;;;;;;;14.50;10.75;;;;;;;;5050622;28;45549;-76
2021/07/01 09:16:23;;;;;;;;;13.75;12.50;;;;;;;;5053046;28;45421;-77
2021/07/01 09:18:49;;;;;;;;;10.75;10.75;;;;;;;;5049424;28;48476;-77
2021/07/01 09:21:14;;;;;;;;;16.50;14.00;;;;;;;;5048441;28;45657;-77
2021/07/01 09:23:47;;;;;;;;;15.25;13.75;;;;;;;;5050185;28;45515;-78
2021/07/01 09:26:22;;;;;;;;;14.00;12.25;;;;;;;;5048334;28;45542;-77
2021/07/01 09:28:48;;;;;;;;;15.50;14.25;;;;;;;;5050066;28;46100;-78
2021/07/01 09:31:15;;;;;;;;;18.75;13.50;;;;;;;;5053333;28;45924;-77
2021/07/01 09:33:40;;;;;;;;;14.00;12.00;;;;;;;;5052149;28;45473;-78
2021/07/01 09:36:05;;;;;;;;;17.00;12.00;;;;;;;;5050068;28;45599;-77
2021/07/01 09:38:32;;;;;;;;;11.33;10.67;;;;;;;;5049966;28;46627;-76
2021/07/01 09:40:57;;;;;;;;;17.25;13.25;;;;;;;;5049654;28;45822;-77
2021/07/01 09:43:24;;;;;;;;;14.67;11.67;;;;;;;;5049934;28;46300;-77
2021/07/01 09:45:50;;;;;;;;;13.50;13.00;;;;;;;;5047084;28;45550;-76
2021/07/01 09:48:18;;;;;;;;;15.50;15.00;;;;;;;;5049742;28;47412;-77
2021/07/01 09:50:49;;;;;;;;;15.25;13.00;;;;;;;;5044502;28;45482;-77
2021/07/01 09:53:22;;;;;;;;;15.75;13.00;;;;;;;;5034000;28;46559;-78
2021/07/01 09:55:51;;;;;;;;;12.50;10.00;;;;;;;;5042295;28;47038;-77
2021/07/01 09:58:19;;;;;;;;;14.00;13.25;;;;;;;;5042208;28;45528;-77
2021/07/01 10:00:48;;;;;;;;;14.00;13.00;;;;;;;;5047173;28;45700;-77
2021/07/01 10:03:13;;;;;;;;;13.50;13.25;;;;;;;;5043180;28;45469;-76
2021/07/01 10:05:38;;;;;;;;;16.33;12.33;;;;;;;;5040034;28;45848;-77
2021/07/01 10:08:04;;;;;;;;;15.00;14.00;;;;;;;;5045482;28;46074;-78
2021/07/01 10:10:41;;;;;;;;;13.25;13.00;;;;;;;;5052783;28;48158;-78
2021/07/01 10:13:10;;;;;;;;;14.25;13.00;;;;;;;;5052172;28;45606;-77
2021/07/01 10:15:35;;;;;;;;;15.75;14.00;;;;;;;;5059569;28;45488;-76
2021/07/01 10:18:00;;;;;;;;;16.75;15.00;;;;;;;;5058888;28;45653;-77
2021/07/01 10:20:31;;;;;;;;;17.67;14.33;;;;;;;;5057943;28;45540;-78
2021/07/01 10:22:57;;;;;;;;;14.25;13.50;;;;;;;;5064015;28;45473;-78
2021/07/01 10:25:28;;;;;;;;;15.75;14.00;;;;;;;;5064483;28;45413;-78
2021/07/01 10:27:54;;;;;;;;;19.25;16.25;;;;;;;;5063979;28;47434;-78
2021/07/01 10:30:28;;;;;;;;;16.75;15.25;;;;;;;;5056310;28;45388;-78
2021/07/01 10:32:54;;;;;;;;;16.25;15.00;;;;;;;;5059075;28;45306;-78
2021/07/01 10:35:31;;;;;;;;;21.50;17.25;;;;;;;;5063543;28;45497;-79
2021/07/01 10:38:01;;;;;;;;;17.75;15.25;;;;;;;;5053141;28;45593;-79
2021/07/01 10:40:27;;;;;;;;;14.75;12.75;;;;;;;;5055020;28;45408;-79
2021/07/01 10:42:55;;;;;;;;;42.00;34.00;;;;;;;;5064460;28;45870;-78
2021/07/01 10:45:20;;;;;;;;;33.00;29.00;;;;;;;;5054421;28;45519;-79
2021/07/01 10:47:46;;;;;;;;;19.50;17.75;;;;;;;;5051475;28;46549;-79
2021/07/01 10:50:21;;;;;;;;;40.00;31.75;;;;;;;;5052255;28;45383;-79
2021/07/01 10:52:47;;;;;;;;;59.00;44.50;;;;;;;;5068300;27;45475;-79
2021/07/01 10:55:13;;;;;;;;;32.25;24.75;;;;;;;;5054104;28;45548;-79
2021/07/01 10:57:51;;;;;;;;;30.50;27.50;;;;;;;;5054949;28;45598;-79
2021/07/01 11:00:16;;;;;;;;;48.25;37.25;;;;;;;;5052950;28;46078;-78
2021/07/01 11:02:49;;;;;;;;;34.25;29.00;;;;;;;;5051776;28;45663;-79
2021/07/01 11:05:17;;;;;;;;;28.00;28.00;;;;;;;;5041352;28;45463;-78
2021/07/01 11:07:44;;;;;;;;;29.00;26.50;;;;;;;;5053678;28;46116;-79
2021/07/01 11:10:10;;;;;;;;;17.75;17.25;;;;;;;;5065822;28;45760;-78
2021/07/01 11:12:43;;;;;;;;;25.25;25.25;;;;;;;;5054635;28;45465;-78
2021/07/01 11:15:08;;;;;;;;;24.50;21.00;;;;;;;;5054904;28;45354;-79
2021/07/01 11:17:35;;;;;;;;;24.25;21.00;;;;;;;;5062033;28;48005;-78
2021/07/01 11:20:17;;;;;;;;;20.50;17.25;;;;;;;;5074299;27;45752;-78
2021/07/01 11:22:44;;;;;;;;;15.50;14.25;;;;;;;;5048654;28;45700;-77
2021/07/01 11:25:20;;;;;;;;;20.75;18.25;;;;;;;;5053804;28;45499;-78
2021/07/01 11:27:45;;;;;;;;;17.50;16.75;;;;;;;;5051848;28;45580;-77
2021/07/01 11:30:20;;;;;;;;;16.00;15.67;;;;;;;;5054120;28;46676;-76
2021/07/01 11:32:46;;;;;;;;;18.75;14.50;;;;;;;;5059276;28;45671;-77
2021/07/01 11:35:21;;;;;;;;;16.67;15.00;;;;;;;;5050871;28;45557;-79
2021/07/01 11:37:46;;;;;;;;;14.75;13.75;;;;;;;;5060448;28;45397;-78
2021/07/01 11:40:12;;;;;;;;;16.67;13.67;;;;;;;;5053755;28;45378;-78
2021/07/01 11:42:37;;;;;;;;;16.25;16.25;;;;;;;;5059184;28;45627;-77
2021/07/01 11:45:03;;;;;;;;;18.25;14.50;;;;;;;;5058605;28;45548;-77
2021/07/01 11:47:30;;;;;;;;;18.25;15.00;;;;;;;;5058710;28;48735;-77
2021/07/01 11:49:56;;;;;;;;;17.25;14.00;;;;;;;;5051466;28;45683;-77
2021/07/01 11:52:21;;;;;;;;;16.50;14.75;;;;;;;;5052650;28;45505;-78
2021/07/01 11:54:46;;;;;;;;;15.25;13.75;;;;;;;;5052745;28;45691;-77
2021/07/01 11:57:11;;;;;;;;;17.00;17.00;;;;;;;;5046295;28;45331;-78
2021/07/01 11:59:37;;;;;;;;;14.50;14.50;;;;;;;;5047890;28;45526;-76
2021/07/01 12:02:02;;;;;;;;;13.50;13.25;;;;;;;;5052683;28;45721;-77
2021/07/01 12:04:32;;;;;;;;;17.50;14.50;;;;;;;;5054520;28;45678;-79
2021/07/01 12:07:00;;;;;;;;;14.50;14.50;;;;;;;;5058428;28;45505;-78
2021/07/01 12:09:26;;;;;;;;;18.50;15.75;;;;;;;;5052913;28;45509;-78
2021/07/01 12:12:03;;;;;;;;;14.50;12.25;;;;;;;;5052986;28;45417;-79
2021/07/01 12:14:32;;;;;;;;;16.00;13.25;;;;;;;;5053929;27;45551;-77
2021/07/01 12:16:58;;;;;;;;;15.25;14.25;;;;;;;;5061210;28;46864;-77
2021/07/01 12:19:46;;;;;;;;;14.75;11.75;;;;;;;;5056630;28;45712;-77
2021/07/01 12:22:31;;;;;;;;;18.50;13.50;;;;;;;;5076063;27;45664;-77
2021/07/01 12:24:57;;;;;;;;;21.75;16.00;;;;;;;;5038022;28;46507;-78
2021/07/01 12:27:31;;;;;;;;;16.33;15.00;;;;;;;;5051659;28;47049;-79
2021/07/01 12:29:56;;;;;;;;;17.50;13.25;;;;;;;;5051975;28;45679;-78
2021/07/01 12:32:23;;;;;;;;;12.67;12.67;;;;;;;;5060038;28;45500;-77
2021/07/01 12:34:48;;;;;;;;;13.25;11.50;;;;;;;;5055227;28;45424;-77
2021/07/01 12:37:14;;;;;;;;;13.67;13.00;;;;;;;;5060368;28;48485;-77
2021/07/01 12:39:39;;;;;;;;;13.75;12.50;;;;;;;;5055398;28;45647;-77
2021/07/01 12:42:04;;;;;;;;;15.25;14.00;;;;;;;;5054944;27;45477;-75
2021/07/01 12:44:34;;;;;;;;;13.25;13.25;;;;;;;;5051569;28;45708;-76
2021/07/01 12:47:00;;;;;;;;;13.50;13.50;;;;;;;;5062707;28;46174;-77
2021/07/01 12:49:28;;;;;;;;;19.00;15.25;;;;;;;;5046908;28;46316;-76
2021/07/01 12:51:53;;;;;;;;;17.25;13.00;;;;;;;;5052221;28;45639;-76
2021/07/01 12:54:25;;;;;;;;;12.50;12.50;;;;;;;;5049055;28;45563;-77
2021/07/01 12:56:51;;;;;;;;;12.75;11.50;;;;;;;;5048224;28;50880;-76
2021/07/01 12:59:16;;;;;;;;;13.50;13.00;;;;;;;;5043197;28;45865;-77
2021/07/01 13:01:42;;;;;;;;;15.50;15.50;;;;;;;;5040438;28;45430;-76
2021/07/01 13:04:07;;;;;;;;;14.67;14.67;;;;;;;;5046210;28;45339;-76
2021/07/01 13:06:33;;;;;;;;;15.50;14.25;;;;;;;;5058124;28;45340;-78
2021/07/01 13:08:58;;;;;;;;;14.50;14.50;;;;;;;;5045818;27;45385;-81
2021/07/01 13:11:23;;;;;;;;;17.67;15.33;;;;;;;;5043771;28;45434;-77
2021/07/01 13:13:58;;;;;;;;;17.75;15.25;;;;;;;;5044655;28;45572;-77
2021/07/01 13:16:24;;;;;;;;;15.25;13.75;;;;;;;;5048054;28;48728;-78
2021/07/01 13:18:49;;;;;;;;;14.75;14.00;;;;;;;;5051419;28;45436;-77
2021/07/01 13:21:14;;;;;;;;;16.33;15.00;;;;;;;;5049870;28;45313;-76
2021/07/01 13:23:39;;;;;;;;;14.00;14.00;;;;;;;;5053941;28;45347;-77
2021/07/01 13:26:09;;;;;;;;;14.67;13.33;;;;;;;;5056598;28;46150;-79
2021/07/01 13:28:34;;;;;;;;;12.75;12.25;;;;;;;;5057017;28;45879;-79
2021/07/01 13:30:59;;;;;;;;;19.50;15.50;;;;;;;;5059500;28;45333;-78
2021/07/01 13:33:25;;;;;;;;;13.67;13.67;;;;;;;;5055119;28;45370;-78
2021/07/01 13:35:50;;;;;;;;;13.33;12.33;;;;;;;;5059529;28;47661;-78
2021/07/01 13:38:20;;;;;;;;;14.00;12.00;;;;;;;;5064623;28;50432;-78
2021/07/01 13:40:46;;;;;;;;;13.75;12.25;;;;;;;;5062951;28;45632;-78
2021/07/01 13:43:13;;;;;;;;;16.00;13.50;;;;;;;;5061307;28;45554;-76
2021/07/01 13:45:39;;;;;;;;;14.00;12.75;;;;;;;;5060975;28;47426;-78
2021/07/01 13:48:04;;;;;;;;;14.50;13.75;;;;;;;;5054952;28;45391;-76
2021/07/01 13:50:42;;;;;;;;;14.75;13.75;;;;;;;;5056405;28;45494;-78
2021/07/01 13:53:12;;;;;;;;;14.25;12.50;;;;;;;;5064626;28;45558;-78
2021/07/01 13:55:39;;;;;;;;;10.75;10.75;;;;;;;;5065141;28;46146;-78
2021/07/01 13:58:05;;;;;;;;;15.25;13.00;;;;;;;;5043788;28;46082;-77
2021/07/01 14:00:34;;;;;;;;;12.50;11.50;;;;;;;;5055338;28;45322;-78
2021/07/01 14:03:20;;;;;;;;;14.25;12.75;;;;;;;;5054781;28;45429;-78
2021/07/01 14:05:51;;;;;;;;;15.75;12.00;;;;;;;;5055557;28;46123;-78
2021/07/01 14:08:25;;;;;;;;;14.25;12.00;;;;;;;;5042954;28;45295;-78
2021/07/01 14:10:58;;;;;;;;;11.50;11.00;;;;;;;;5058633;28;45493;-78
2021/07/01 14:13:24;;;;;;;;;12.25;11.25;;;;;;;;5064089;28;45390;-77
2021/07/01 14:15:49;;;;;;;;;14.75;12.50;;;;;;;;5059472;28;45537;-78
2021/07/01 14:18:15;;;;;;;;;15.50;12.00;;;;;;;;5070199;27;45678;-78
2021/07/01 14:20:40;;;;;;;;;12.25;11.25;;;;;;;;5055721;28;45542;-78